createdAt,value
2023-05-08T00:00:59.046Z,44.08
2023-05-08T00:03:26.542Z,26.65
2023-05-08T00:05:55.455Z,77.82
2023-05-08T00:10:49.074Z,12.98
2023-05-08T00:13:16.245Z,10.68
2023-05-08T00:15:42.984Z,25.92
2023-05-08T00:18:09.792Z,14.40
2023-05-08T00:20:36.623Z,10.73
2023-05-08T00:23:03.477Z,12.20
2023-05-08T00:25:31.368Z,49.63
2023-05-08T00:27:58.903Z,41.00
2023-05-08T00:30:25.614Z,24.88
2023-05-08T00:32:52.961Z,26.30
2023-05-08T00:35:20.391Z,26.55
2023-05-08T00:37:47.247Z,44.50
2023-05-08T00:40:14.320Z,30.63
2023-05-08T00:42:41.698Z,43.33
2023-05-08T00:45:09.118Z,41.80
2023-05-08T00:47:35.852Z,35.83
2023-05-08T00:50:03.290Z,14.07
2023-05-08T00:52:31.806Z,14.93
2023-05-08T00:57:25.994Z,29.25
2023-05-08T00:59:54.057Z,29.77
2023-05-08T01:02:21.115Z,44.03
2023-05-08T01:04:48.521Z,52.47
2023-05-08T01:07:17.989Z,50.83
2023-05-08T01:09:44.660Z,58.08
2023-05-08T01:12:14.042Z,53.97
2023-05-08T01:14:51.996Z,58.05
2023-05-08T01:17:36.429Z,56.75
2023-05-08T01:20:11.218Z,55.60
2023-05-08T01:23:17.939Z,41.85
2023-05-08T01:26:13.649Z,27.70
2023-05-08T01:29:01.279Z,29.10
2023-05-08T01:31:47.436Z,34.60
2023-05-08T01:34:35.387Z,19.50
2023-05-08T01:37:06.624Z,25.98
2023-05-08T01:39:48.209Z,27.48
2023-05-08T01:42:28.803Z,23.13
2023-05-08T01:45:03.332Z,19.75
2023-05-08T01:47:33.329Z,33.28
2023-05-08T01:50:33.438Z,44.50
2023-05-08T01:53:08.039Z,36.42
2023-05-08T01:55:37.379Z,46.13
2023-05-08T01:58:09.868Z,41.53
2023-05-08T02:00:40.652Z,41.78
2023-05-08T02:03:09.309Z,21.38
2023-05-08T02:08:04.150Z,46.17
2023-05-08T02:10:31.852Z,64.17
2023-05-08T02:13:01.378Z,11.97
2023-05-08T02:15:30.785Z,42.70
2023-05-08T02:17:58.776Z,25.85
2023-05-08T02:20:27.817Z,98.43
2023-05-08T02:22:55.269Z,133.88
2023-05-08T02:25:23.345Z,60.47
2023-05-08T02:27:51.781Z,75.53
2023-05-08T02:30:20.105Z,70.53
2023-05-08T02:32:48.384Z,42.95
2023-05-08T02:35:17.244Z,76.85
2023-05-08T02:37:55.530Z,45.22
2023-05-08T02:40:24.633Z,48.78
2023-05-08T02:42:51.435Z,14.90
2023-05-08T02:45:18.654Z,29.88
2023-05-08T02:48:01.812Z,9.25
2023-05-08T02:51:19.508Z,9.23
2023-05-08T02:53:51.933Z,32.58
2023-05-08T02:56:36.179Z,53.33
2023-05-08T02:59:18.910Z,42.65
2023-05-08T03:01:53.863Z,71.90
2023-05-08T03:04:30.735Z,50.30
2023-05-08T03:06:58.364Z,38.30
2023-05-08T03:09:32.105Z,67.57
2023-05-08T03:12:04.810Z,74.28
2023-05-08T03:14:34.684Z,55.17
2023-05-08T03:17:04.631Z,47.42
2023-05-08T03:19:35.980Z,73.90
2023-05-08T03:22:04.141Z,85.82
2023-05-08T03:24:33.620Z,108.72
2023-05-08T03:27:01.168Z,58.20
2023-05-08T03:29:29.105Z,104.43
2023-05-08T03:31:57.583Z,59.00
2023-05-08T03:34:25.213Z,75.28
2023-05-08T03:36:52.610Z,36.40
2023-05-08T03:39:19.681Z,56.65
2023-05-08T03:41:47.918Z,71.38
2023-05-08T03:44:15.121Z,66.40
2023-05-08T03:46:42.986Z,46.22
2023-05-08T03:49:11.721Z,60.83
2023-05-08T03:54:06.162Z,22.75
2023-05-08T03:56:34.393Z,32.90
2023-05-08T03:59:13.767Z,32.78
2023-05-08T04:01:50.046Z,33.40
2023-05-08T04:04:24.367Z,28.95
2023-05-08T04:07:13.844Z,12.68
2023-05-08T04:09:55.239Z,14.10
2023-05-08T04:12:50.618Z,18.33
2023-05-08T04:15:30.544Z,23.27
2023-05-08T04:18:08.208Z,29.55
2023-05-08T04:20:35.745Z,72.50
2023-05-08T04:23:03.798Z,79.47
2023-05-08T04:25:32.373Z,40.42
2023-05-08T04:27:59.687Z,52.95
2023-05-08T04:30:27.170Z,104.30
2023-05-08T04:32:55.795Z,47.47
2023-05-08T04:37:49.221Z,13.55
2023-05-08T04:40:15.882Z,17.02
2023-05-08T04:42:43.585Z,10.23
2023-05-08T04:45:10.898Z,8.77
2023-05-08T04:47:37.847Z,18.65
2023-05-08T04:50:05.023Z,21.17
2023-05-08T04:52:31.891Z,8.43
2023-05-08T04:54:59.531Z,8.38
2023-05-08T04:57:26.317Z,7.78
2023-05-08T04:59:53.087Z,7.88
2023-05-08T05:02:21.861Z,8.10
2023-05-08T05:04:49.106Z,8.07
2023-05-08T05:07:15.759Z,8.10
2023-05-08T05:09:44.138Z,7.90
2023-05-08T05:12:10.936Z,7.13
2023-05-08T05:14:37.629Z,7.70
2023-05-08T05:17:06.164Z,8.32
2023-05-08T05:21:59.976Z,7.63
2023-05-08T05:24:26.615Z,7.80
2023-05-08T05:26:53.249Z,8.98
2023-05-08T05:29:19.978Z,8.93
2023-05-08T05:31:46.690Z,9.15
2023-05-08T05:34:13.430Z,9.55
2023-05-08T05:36:40.228Z,9.90
2023-05-08T05:39:06.937Z,10.90
2023-05-08T05:41:34.267Z,10.85
2023-05-08T05:44:01.026Z,11.55
2023-05-08T05:46:32.426Z,11.18
2023-05-08T05:48:59.498Z,11.23
2023-05-08T05:51:27.627Z,13.20
2023-05-08T05:53:54.302Z,13.20
2023-05-08T05:56:23.186Z,14.32
2023-05-08T05:58:50.012Z,14.25
2023-05-08T06:01:17.025Z,14.95
2023-05-08T06:03:44.185Z,13.25
2023-05-08T06:06:11.304Z,18.48
2023-05-08T06:08:37.948Z,14.60
2023-05-08T06:11:04.770Z,14.82
2023-05-08T06:13:32.888Z,15.00
2023-05-08T06:15:59.820Z,16.65
2023-05-08T06:18:26.736Z,15.88
2023-05-08T06:20:57.872Z,17.05
2023-05-08T06:23:24.929Z,17.50
2023-05-08T06:25:51.775Z,17.48
2023-05-08T06:28:22.577Z,16.88
2023-05-08T06:30:49.423Z,18.77
2023-05-08T06:33:16.180Z,18.42
2023-05-08T06:35:47.214Z,18.45
2023-05-08T06:38:15.627Z,18.02
2023-05-08T06:40:44.052Z,18.45
2023-05-08T06:43:11.745Z,19.52
2023-05-08T06:45:40.271Z,21.10
2023-05-08T06:50:37.496Z,28.35
2023-05-08T06:53:04.271Z,24.80
2023-05-08T06:55:30.933Z,26.65
2023-05-08T06:57:57.720Z,27.30
2023-05-08T07:00:24.681Z,25.30
2023-05-08T07:02:52.223Z,25.95
2023-05-08T07:05:20.003Z,30.48
2023-05-08T07:07:46.998Z,32.70
2023-05-08T07:10:14.097Z,29.10
2023-05-08T07:12:41.337Z,30.23
2023-05-08T07:15:23.919Z,33.10
2023-05-08T07:17:54.091Z,31.27
2023-05-08T07:20:21.576Z,31.67
2023-05-08T07:22:49.707Z,32.00
2023-05-08T07:25:16.909Z,34.28
2023-05-08T07:27:43.743Z,33.47
2023-05-08T07:30:10.854Z,35.65
2023-05-08T07:32:39.206Z,35.75
2023-05-08T07:35:10.306Z,38.08
2023-05-08T07:37:37.806Z,38.28
2023-05-08T07:40:04.858Z,39.88
2023-05-08T07:42:31.565Z,40.88
2023-05-08T07:44:58.307Z,41.83
2023-05-08T07:47:25.195Z,40.78
2023-05-08T07:49:53.083Z,45.03
2023-05-08T07:52:19.999Z,47.97
2023-05-08T07:54:46.714Z,50.13
2023-05-08T07:57:13.391Z,48.30
2023-05-08T07:59:40.166Z,48.78
2023-05-08T08:02:07.535Z,54.42
2023-05-08T08:04:34.454Z,55.45
2023-05-08T08:07:04.125Z,60.95
2023-05-08T08:09:31.231Z,62.80
2023-05-08T08:11:58.243Z,59.83
2023-05-08T08:14:24.903Z,63.22
2023-05-08T08:16:51.613Z,61.83
2023-05-08T08:19:19.332Z,60.58
2023-05-08T08:21:46.353Z,65.70
2023-05-08T08:24:13.549Z,61.33
2023-05-08T08:26:40.352Z,57.33
2023-05-08T08:29:07.112Z,63.13
2023-05-08T08:31:34.040Z,59.10
2023-05-08T08:34:00.928Z,63.25
2023-05-08T08:36:28.135Z,65.75
2023-05-08T08:38:54.809Z,67.63
2023-05-08T08:41:22.194Z,65.35
2023-05-08T08:43:49.208Z,64.35
2023-05-08T08:46:20.129Z,66.35
2023-05-08T08:48:47.579Z,65.32
2023-05-08T08:51:41.852Z,56.88
2023-05-08T08:54:11.345Z,56.05
2023-05-08T08:56:40.766Z,65.55
2023-05-08T08:59:08.999Z,66.47
2023-05-08T09:01:38.786Z,68.57
2023-05-08T09:04:05.993Z,56.55
2023-05-08T09:06:37.174Z,62.88
2023-05-08T09:09:04.818Z,60.75
2023-05-08T09:11:31.587Z,57.50
2023-05-08T09:13:59.483Z,66.07
2023-05-08T09:16:28.565Z,60.17
2023-05-08T09:18:55.432Z,63.53
2023-05-08T09:21:23.316Z,64.97
2023-05-08T09:23:59.924Z,70.03
2023-05-08T09:26:44.528Z,70.68
2023-05-08T09:29:18.131Z,61.38
2023-05-08T09:31:47.085Z,63.95
2023-05-08T09:34:28.799Z,63.30
2023-05-08T09:36:56.687Z,65.55
2023-05-08T09:39:25.886Z,65.47
2023-05-08T09:42:03.716Z,59.90
2023-05-08T09:44:53.894Z,70.50
2023-05-08T09:47:23.018Z,63.08
2023-05-08T09:49:59.517Z,66.10
2023-05-08T09:52:30.071Z,60.92
2023-05-08T09:55:04.284Z,70.50
2023-05-08T09:57:32.986Z,76.43
2023-05-08T10:00:11.740Z,81.00
2023-05-08T10:02:55.328Z,82.45
2023-05-08T10:05:34.552Z,76.15
2023-05-08T10:08:22.070Z,76.90
2023-05-08T10:10:49.254Z,79.22
2023-05-08T10:13:16.029Z,95.47
2023-05-08T10:15:43.949Z,89.28
2023-05-08T10:18:12.280Z,83.22
2023-05-08T10:23:17.087Z,80.30
2023-05-08T10:25:46.629Z,87.60
2023-05-08T10:28:24.844Z,92.28
2023-05-08T10:30:54.402Z,91.70
2023-05-08T10:33:23.951Z,93.75
2023-05-08T10:35:50.889Z,87.05
2023-05-08T10:38:18.986Z,93.00
2023-05-08T10:40:46.220Z,97.63
2023-05-08T10:43:15.752Z,93.35
2023-05-08T10:45:43.283Z,106.40
2023-05-08T10:48:48.766Z,107.75
2023-05-08T10:51:23.749Z,108.47
2023-05-08T10:53:55.353Z,101.47
2023-05-08T10:56:28.965Z,94.00
2023-05-08T10:58:57.749Z,96.30
2023-05-08T11:01:28.226Z,96.93
2023-05-08T11:03:56.246Z,91.30
2023-05-08T11:06:49.394Z,98.65
2023-05-08T11:09:26.986Z,98.65
2023-05-08T11:12:08.547Z,91.63
2023-05-08T11:14:39.459Z,94.55
2023-05-08T11:17:06.903Z,92.57
2023-05-08T11:19:33.994Z,94.57
2023-05-08T11:22:13.606Z,100.45
2023-05-08T11:24:51.651Z,94.40
2023-05-08T11:27:18.924Z,98.25
2023-05-08T11:30:05.609Z,94.90
2023-05-08T11:33:03.589Z,93.35
2023-05-08T11:38:19.276Z,91.80
2023-05-08T11:41:19.610Z,94.70
2023-05-08T11:44:04.754Z,92.63
2023-05-08T11:46:40.370Z,91.32
2023-05-08T11:49:12.302Z,89.65
2023-05-08T11:51:44.817Z,94.68
2023-05-08T11:54:17.575Z,97.15
2023-05-08T11:56:47.834Z,96.72
2023-05-08T11:59:17.063Z,91.28
2023-05-08T12:01:48.543Z,84.63
2023-05-08T12:04:23.578Z,76.20
2023-05-08T12:06:56.715Z,77.68
2023-05-08T12:09:23.635Z,83.15
2023-05-08T12:11:57.906Z,81.25
2023-05-08T12:14:24.774Z,77.03
2023-05-08T12:16:51.688Z,82.55
2023-05-08T12:19:18.410Z,75.75
2023-05-08T12:21:49.468Z,76.28
2023-05-08T12:24:18.794Z,79.28
2023-05-08T12:26:47.014Z,75.55
2023-05-08T12:29:14.291Z,69.13
2023-05-08T12:31:41.941Z,68.47
2023-05-08T12:34:10.099Z,67.22
2023-05-08T12:36:48.928Z,71.20
2023-05-08T12:39:16.979Z,63.50
2023-05-08T12:41:50.947Z,65.15
2023-05-08T12:44:23.411Z,65.43
2023-05-08T12:46:51.709Z,68.95
2023-05-08T12:49:29.113Z,70.75
2023-05-08T12:52:06.930Z,69.72
2023-05-08T12:54:37.822Z,72.05
2023-05-08T12:57:10.221Z,64.10
2023-05-08T12:59:37.344Z,66.28
2023-05-08T13:02:04.630Z,66.07
2023-05-08T13:04:37.398Z,63.33
2023-05-08T13:07:04.693Z,64.10
2023-05-08T13:09:31.839Z,66.10
2023-05-08T13:11:59.564Z,61.83
2023-05-08T13:14:26.982Z,61.28
2023-05-08T13:16:54.216Z,51.90
2023-05-08T13:19:21.411Z,57.33
2023-05-08T13:21:49.464Z,47.25
2023-05-08T13:24:16.777Z,47.30
2023-05-08T13:26:44.030Z,39.85
2023-05-08T13:29:11.178Z,49.35
2023-05-08T13:31:38.364Z,56.45
2023-05-08T13:34:05.532Z,47.50
2023-05-08T13:36:32.719Z,51.60
2023-05-08T13:38:59.943Z,45.30
2023-05-08T13:41:27.018Z,42.60
2023-05-08T13:43:54.107Z,40.95
2023-05-08T13:46:21.331Z,36.22
2023-05-08T13:48:48.463Z,38.13
2023-05-08T13:51:15.748Z,34.53
2023-05-08T13:53:42.860Z,44.60
2023-05-08T13:56:09.968Z,38.90
2023-05-08T13:58:37.122Z,38.20
2023-05-08T14:01:17.589Z,40.15
2023-05-08T14:03:51.477Z,35.28
2023-05-08T14:06:18.771Z,42.88
2023-05-08T14:08:49.616Z,41.25
2023-05-08T14:11:18.120Z,35.88
2023-05-08T14:13:45.274Z,33.17
2023-05-08T14:16:14.349Z,33.45
2023-05-08T14:18:41.627Z,33.67
2023-05-08T14:21:08.771Z,31.90
2023-05-08T14:23:36.066Z,29.05
2023-05-08T14:26:03.284Z,34.10
2023-05-08T14:28:30.375Z,35.22
2023-05-08T14:30:57.523Z,32.08
2023-05-08T14:33:24.709Z,32.30
2023-05-08T14:35:51.812Z,35.97
2023-05-08T14:38:18.935Z,35.15
2023-05-08T14:40:46.010Z,35.00
2023-05-08T14:43:13.081Z,40.28
2023-05-08T14:45:40.263Z,36.60
2023-05-08T14:48:07.552Z,36.72
2023-05-08T14:50:34.760Z,34.90
2023-05-08T14:53:01.948Z,36.97
2023-05-08T14:55:29.337Z,36.42
2023-05-08T14:57:57.087Z,42.80
2023-05-08T15:00:24.222Z,35.97
2023-05-08T15:02:51.509Z,37.10
2023-05-08T15:05:20.174Z,37.15
2023-05-08T15:07:49.949Z,32.05
2023-05-08T15:10:17.103Z,34.13
2023-05-08T15:12:44.211Z,33.83
2023-05-08T15:15:11.824Z,36.22
2023-05-08T15:17:41.417Z,37.40
2023-05-08T15:20:11.820Z,34.70
2023-05-08T15:22:39.113Z,37.35
2023-05-08T15:25:06.557Z,33.47
2023-05-08T15:27:33.719Z,33.83
2023-05-08T15:30:00.910Z,29.63
2023-05-08T15:32:28.055Z,31.85
2023-05-08T15:34:56.044Z,35.88
2023-05-08T15:37:23.128Z,33.45
2023-05-08T15:39:50.276Z,39.55
2023-05-08T15:42:17.356Z,35.10
2023-05-08T15:47:14.698Z,37.40
2023-05-08T15:49:41.885Z,34.35
2023-05-08T15:52:08.549Z,40.13
2023-05-08T15:54:35.301Z,34.33
2023-05-08T15:57:02.059Z,34.17
2023-05-08T15:59:29.279Z,38.33
2023-05-08T16:01:56.365Z,37.22
2023-05-08T16:04:23.522Z,37.45
2023-05-08T16:06:50.658Z,38.97
2023-05-08T16:09:17.762Z,38.60
2023-05-08T16:11:44.867Z,44.58
2023-05-08T16:14:12.240Z,37.90
2023-05-08T16:16:39.718Z,45.22
2023-05-08T16:19:06.890Z,53.10
2023-05-08T16:21:33.981Z,53.33
2023-05-08T16:24:01.203Z,50.67
2023-05-08T16:26:28.484Z,65.55
2023-05-08T16:28:55.654Z,76.40
2023-05-08T16:31:22.787Z,81.10
2023-05-08T16:33:49.863Z,105.43
2023-05-08T16:36:17.031Z,103.43
2023-05-08T16:38:44.141Z,111.35
2023-05-08T16:41:12.731Z,107.43
2023-05-08T16:43:39.894Z,119.90
2023-05-08T16:46:07.511Z,110.68
2023-05-08T16:48:34.831Z,116.57
2023-05-08T16:51:02.052Z,118.25
2023-05-08T16:53:29.186Z,118.40
2023-05-08T16:55:56.479Z,120.55
2023-05-08T16:58:23.611Z,126.55
2023-05-08T17:00:50.846Z,122.88
2023-05-08T17:03:18.075Z,128.60
2023-05-08T17:05:45.239Z,124.43
2023-05-08T17:08:12.568Z,128.57
2023-05-08T17:10:39.754Z,138.55
2023-05-08T17:13:06.866Z,134.18
2023-05-08T17:15:34.307Z,132.10
2023-05-08T17:18:01.538Z,139.15
2023-05-08T17:20:28.726Z,129.48
2023-05-08T17:22:55.920Z,136.93
2023-05-08T17:25:23.102Z,127.63
2023-05-08T17:27:51.253Z,141.10
2023-05-08T17:30:18.388Z,137.05
2023-05-08T17:32:46.306Z,134.80
2023-05-08T17:35:13.473Z,134.75
2023-05-08T17:37:40.598Z,136.32
2023-05-08T17:40:10.002Z,134.57
2023-05-08T17:45:04.963Z,132.20
2023-05-08T17:47:32.324Z,134.85
2023-05-08T17:49:59.575Z,126.80
2023-05-08T17:52:26.650Z,128.88
2023-05-08T17:54:53.844Z,118.07
2023-05-08T17:57:21.033Z,121.00
2023-05-08T17:59:48.222Z,112.70
2023-05-08T18:02:15.478Z,123.53
2023-05-08T18:04:42.672Z,117.43
2023-05-08T18:07:09.772Z,107.57
2023-05-08T18:09:36.922Z,108.05
2023-05-08T18:12:04.238Z,104.97
2023-05-08T18:14:34.848Z,114.55
2023-05-08T18:17:02.082Z,94.93
2023-05-08T18:19:29.213Z,96.82
2023-05-08T18:21:56.388Z,101.78
2023-05-08T18:24:23.536Z,96.38
2023-05-08T18:26:52.331Z,93.82
2023-05-08T18:29:20.702Z,95.55
2023-05-08T18:31:47.898Z,92.35
2023-05-08T18:34:16.152Z,89.00
2023-05-08T18:36:43.276Z,88.90
2023-05-08T18:39:10.509Z,91.68
2023-05-08T18:41:37.765Z,97.18
2023-05-08T18:44:05.858Z,90.72
2023-05-08T18:46:33.053Z,87.82
2023-05-08T18:49:00.534Z,93.30
2023-05-08T18:51:27.776Z,98.13
2023-05-08T18:53:57.131Z,87.97
2023-05-08T18:56:24.363Z,89.38
2023-05-08T18:58:51.483Z,89.22
2023-05-08T19:01:20.144Z,89.93
2023-05-08T19:03:48.463Z,94.75
2023-05-08T19:06:15.724Z,85.75
2023-05-08T19:08:43.739Z,90.20
2023-05-08T19:11:10.909Z,90.38
2023-05-08T19:13:38.488Z,90.68
2023-05-08T19:16:05.798Z,89.93
2023-05-08T19:18:32.991Z,87.10
2023-05-08T19:21:01.528Z,85.40
2023-05-08T19:23:28.682Z,85.47
2023-05-08T19:25:56.833Z,94.55
2023-05-08T19:28:23.957Z,86.35
2023-05-08T19:30:51.073Z,87.22
2023-05-08T19:33:20.701Z,85.35
2023-05-08T19:35:48.159Z,88.90
2023-05-08T19:38:15.420Z,87.78
2023-05-08T19:40:55.757Z,88.00
2023-05-08T19:43:24.973Z,83.18
2023-05-08T19:45:52.374Z,91.33
2023-05-08T19:48:20.084Z,88.75
2023-05-08T19:50:47.452Z,87.07
2023-05-08T19:53:14.743Z,89.07
2023-05-08T19:55:42.082Z,84.28
2023-05-08T19:58:09.314Z,83.18
2023-05-08T20:00:37.432Z,86.10
2023-05-08T20:03:04.617Z,90.88
2023-05-08T20:05:31.910Z,91.97
2023-05-08T20:07:59.206Z,87.85
2023-05-08T20:10:26.393Z,91.10
2023-05-08T20:12:53.529Z,88.00
2023-05-08T20:15:20.684Z,85.93
2023-05-08T20:17:47.890Z,87.22
2023-05-08T20:20:15.457Z,83.68
2023-05-08T20:22:42.743Z,77.95
2023-05-08T20:25:09.858Z,78.78
2023-05-08T20:27:37.068Z,78.85
2023-05-08T20:30:04.536Z,66.60
2023-05-08T20:32:31.741Z,67.05
2023-05-08T20:34:58.931Z,61.97
2023-05-08T20:37:26.135Z,64.47
2023-05-08T20:39:53.248Z,70.90
2023-05-08T20:42:20.425Z,57.83
2023-05-08T20:44:47.529Z,60.83
2023-05-08T20:47:14.712Z,58.22
2023-05-08T20:49:41.855Z,58.72
2023-05-08T20:52:08.939Z,66.15
2023-05-08T20:54:36.100Z,64.43
2023-05-08T20:57:03.193Z,68.07
2023-05-08T20:59:30.305Z,69.97
2023-05-08T21:01:57.386Z,67.40
2023-05-08T21:04:24.511Z,65.97
2023-05-08T21:06:52.329Z,65.93
2023-05-08T21:09:19.659Z,65.82
2023-05-08T21:11:46.782Z,63.65
2023-05-08T21:14:13.988Z,70.65
2023-05-08T21:16:41.232Z,69.47
2023-05-08T21:19:09.891Z,63.40
2023-05-08T21:21:37.125Z,67.30
2023-05-08T21:24:04.878Z,65.30
2023-05-08T21:26:31.985Z,68.43
2023-05-08T21:29:00.487Z,67.30
2023-05-08T21:36:23.146Z,62.70
2023-05-08T21:38:50.434Z,62.05
2023-05-08T21:41:17.569Z,57.67
2023-05-08T21:43:44.673Z,60.83
2023-05-08T21:46:11.864Z,68.60
2023-05-08T21:48:38.963Z,54.92
2023-05-08T21:51:06.642Z,58.53
2023-05-08T21:53:33.872Z,58.97
2023-05-08T21:56:00.961Z,57.72
2023-05-08T21:58:30.914Z,56.83
2023-05-08T22:00:58.786Z,54.70
2023-05-08T22:03:26.217Z,56.65
2023-05-08T22:05:55.315Z,57.17
2023-05-08T22:08:21.964Z,61.22
2023-05-08T22:10:48.701Z,51.72
2023-05-08T22:13:15.478Z,47.92
2023-05-08T22:15:42.821Z,51.90
2023-05-08T22:18:09.554Z,53.17
2023-05-08T22:20:36.279Z,55.92
2023-05-08T22:23:03.086Z,50.85
2023-05-08T22:25:29.897Z,47.90
2023-05-08T22:27:56.591Z,47.22
2023-05-08T22:30:23.305Z,47.60
2023-05-08T22:32:57.647Z,46.88
2023-05-08T22:35:27.613Z,47.90
2023-05-08T22:37:54.918Z,57.00
2023-05-08T22:40:22.244Z,51.92
2023-05-08T22:42:51.870Z,54.58
2023-05-08T22:45:19.325Z,53.95
2023-05-08T22:47:46.283Z,45.83
2023-05-08T22:50:13.186Z,46.50
2023-05-08T22:52:40.291Z,48.88
2023-05-08T22:55:07.830Z,48.97
2023-05-08T22:57:34.673Z,47.13
2023-05-08T23:00:01.393Z,50.20
2023-05-08T23:02:33.059Z,49.80
2023-05-08T23:05:00.350Z,48.13
2023-05-08T23:07:27.274Z,45.97
2023-05-08T23:09:54.009Z,52.80
2023-05-08T23:12:20.672Z,46.30
2023-05-08T23:14:47.390Z,47.38
2023-05-08T23:17:14.346Z,51.20
2023-05-08T23:19:42.511Z,55.03
2023-05-08T23:22:09.862Z,54.80
2023-05-08T23:24:36.997Z,48.42
2023-05-08T23:27:03.773Z,52.85
2023-05-08T23:29:30.712Z,49.65
2023-05-08T23:31:57.381Z,50.63
2023-05-08T23:34:24.106Z,49.40
2023-05-08T23:36:50.773Z,47.03
2023-05-08T23:39:17.476Z,53.28
2023-05-08T23:41:44.205Z,49.67
2023-05-08T23:44:11.091Z,57.35
2023-05-08T23:46:37.951Z,58.17
2023-05-08T23:49:06.675Z,60.50
2023-05-08T23:51:33.576Z,55.50
2023-05-08T23:54:00.337Z,57.78
2023-05-08T23:56:27.127Z,54.95
2023-05-08T23:58:53.859Z,54.53
